Sunday, December 21, 2014
15:08 UTC
  |  Log In   |  Register Free
Airport Search:

Livermore Municipal Airport
(KLVK)

FAA data valid effective November 13, 2014 - January 08, 2015 (unless otherwise noted).

 
 
 
 
 
 
 
 
 
 
 
 
 
 

Current Aviation Weather for Livermore Municipal Airport (KLVK)

The most recent METAR observation for KLVK was updated at: 2116
METAR Summary (Translated METAR)
KLVK
182102Z 05009KT 10SM SCT026 OVC046 14/11 A3014 RMK AO2
KHWD
182054Z 00000KT 10SM OVC049 16/11 A3014 RMK AO2 SLP216 T01610106 58010
(14.5 nm SW from KLVK)
KOAK
182053Z 11004KT 10SM FEW010 BKN050 15/11 A3015 RMK AO2 SLP208 T01500106 58010
(19.1 nm NW from KLVK)
TAF Summary (Translated TAF)
KOAK
(19.1 nm NW from KLVK)
211128Z 2112/2218 20005KT 5SM -RA BR SCT005 OVC015 TEMPO 2112/2114 1SM -DZ OVC005 FM211800 23006KT P6SM BKN020 FM220300 VRB03KT P6SM SCT009 BKN012 FM220700 00000KT P6SM OVC009
  Airport Weather Conditions for KLVK

 Current Weather at LVK
58° F
Overcast
West winds at 3.5 mph
LVK NOAA Radar

Pressure: 30.27 in
Humidity: 90%
Wind: West at 3.5 MPH (3 KT)
Dew Point: 55.0°F
Visibility: 9.00 mi


Airport Weather Forecast for KLVK

Translated METAR and TAF for KLVK
Translated METAR for KLVK (1509 UTC 21 December 2014)
found at http://aviationweather.gov/adds/metars/
 
METAR text: KLVK 211500Z 00000KT 9SM OVC008 15/13 A3028 RMK AO2
Conditions at: KLVK (LIVERMORE , CA, US) observed 1500 UTC 21 December 2014
Temperature: 15.0°C (59°F)
Dewpoint: 13.0°C (55°F) [RH = 88%]
Pressure (altimeter): 30.28 inches Hg (1025.5 mb)
Winds: calm
Visibility: 9 miles (14 km)
Ceiling: 800 feet AGL
Clouds: overcast cloud deck at 800 feet AGL
Weather: no significant weather observed at this time
Translated TAF for KLVK

There is no translated TAF available for this airport

Find All Airport Services Find A Hotel Find A Rental Car Find A Golf Course Find A Restaurant $100 Hamburger



FBO's on the Field
FBO Company Facility Photos Services Transportation Aviation Fuel Prices: Prices include tax
Catering Weather Repair Courtesy Rental Type 100LL JetA JetA+ MOGAS 8087
 
Livermore Municipal Airport

This FBO has not yet been rated
FS:Ascent
Last Updated: Dec-17
Login to update fuel prices
SS:
Contact Livermore Municipal AirportMore FBO Information
 
Add another FBO Facility Photos Catering Weather Repair Courtesy Rental Type 100LL JetA JetA+ MOGAS 8087
Services Transportation Aviation Fuel Prices: Prices include tax


model-print
model-print
model-print
model-print